createdAt,value
2022-11-17T00:06:40.337Z,81.81
2022-11-17T00:15:01.899Z,81.65
2022-11-17T00:23:23.963Z,81.51
2022-11-17T00:32:04.250Z,81.69
2022-11-17T00:40:26.169Z,81.39
2022-11-17T00:48:47.790Z,81.36
2022-11-17T00:57:09.456Z,81.43
2022-11-17T01:05:34.087Z,81.41
2022-11-17T01:13:58.338Z,81.30
2022-11-17T01:22:19.899Z,81.12
2022-11-17T01:30:41.639Z,81.24
2022-11-17T01:39:03.318Z,81.09
2022-11-17T01:47:37.857Z,81.18
2022-11-17T01:56:05.242Z,81.37
2022-11-17T02:04:31.416Z,81.23
2022-11-17T02:12:53.858Z,81.21
2022-11-17T02:21:30.841Z,81.12
2022-11-17T02:30:05.230Z,81.21
2022-11-17T02:38:45.958Z,81.28
2022-11-17T02:47:25.410Z,81.02
2022-11-17T02:55:52.192Z,80.95
2022-11-17T03:04:31.463Z,81.02
2022-11-17T03:13:17.752Z,80.98
2022-11-17T03:22:14.481Z,80.99
2022-11-17T03:30:40.585Z,80.79
2022-11-17T03:39:09.552Z,80.89
2022-11-17T03:47:33.154Z,81.03
2022-11-17T03:56:01.844Z,80.90
2022-11-17T04:04:23.651Z,80.75
2022-11-17T04:13:06.112Z,80.77
2022-11-17T04:21:27.773Z,80.97
2022-11-17T04:29:49.438Z,80.78
2022-11-17T04:38:11.861Z,80.66
2022-11-17T04:46:35.453Z,80.69
2022-11-17T04:54:57.083Z,80.59
2022-11-17T05:03:18.714Z,80.71
2022-11-17T05:12:00.282Z,80.60
2022-11-17T05:20:21.938Z,80.68
2022-11-17T05:28:43.879Z,80.56
2022-11-17T05:37:05.927Z,80.28
2022-11-17T05:45:27.639Z,80.51
2022-11-17T05:53:50.230Z,80.40
2022-11-17T06:02:23.410Z,80.30
2022-11-17T06:10:45.250Z,80.32
2022-11-17T06:19:12.499Z,80.20
2022-11-17T06:27:38.011Z,80.25
2022-11-17T06:36:03.796Z,80.33
2022-11-17T06:44:25.471Z,80.33
2022-11-17T06:52:47.272Z,80.24
2022-11-17T07:01:12.725Z,79.97
2022-11-17T07:09:34.507Z,79.99
2022-11-17T07:17:57.200Z,80.11
2022-11-17T07:26:19.015Z,79.88
2022-11-17T07:34:40.924Z,79.60
2022-11-17T07:43:03.022Z,79.78
2022-11-17T07:51:24.773Z,79.88
2022-11-17T07:59:46.424Z,79.87
2022-11-17T08:08:08.921Z,79.64
2022-11-17T08:16:31.656Z,79.57
2022-11-17T08:24:53.706Z,79.56
2022-11-17T08:33:15.537Z,79.66
2022-11-17T08:41:37.210Z,79.51
2022-11-17T08:49:59.153Z,79.55
2022-11-17T08:58:21.335Z,79.49
2022-11-17T09:06:43.398Z,79.53
2022-11-17T09:15:05.543Z,79.53
2022-11-17T09:23:29.486Z,79.58
2022-11-17T09:31:51.692Z,79.54
2022-11-17T09:40:17.577Z,79.49
2022-11-17T09:49:12.304Z,79.61
2022-11-17T09:57:40.372Z,79.57
2022-11-17T10:06:21.324Z,79.28
2022-11-17T10:14:43.865Z,79.37
2022-11-17T10:23:06.976Z,79.34
2022-11-17T10:31:38.506Z,79.31
2022-11-17T10:40:22.056Z,79.33
2022-11-17T10:48:55.955Z,79.35
2022-11-17T10:57:22.681Z,79.27
2022-11-17T11:06:03.083Z,79.24
2022-11-17T11:14:55.807Z,79.14
2022-11-17T11:23:28.762Z,79.17
2022-11-17T11:32:00.411Z,79.21
2022-11-17T11:40:28.898Z,79.16
2022-11-17T11:48:56.606Z,79.25
2022-11-17T11:57:27.907Z,79.14
2022-11-17T12:06:29.692Z,79.12
2022-11-17T12:15:08.926Z,79.21
2022-11-17T12:23:58.404Z,79.05
2022-11-17T12:32:45.345Z,78.99
2022-11-17T12:41:07.365Z,78.91
2022-11-17T12:49:41.243Z,78.96
2022-11-17T12:58:18.012Z,78.85
2022-11-17T13:07:07.821Z,78.86
2022-11-17T13:15:30.118Z,78.58
2022-11-17T13:23:53.567Z,78.64
2022-11-17T13:32:21.615Z,78.62
2022-11-17T13:40:43.592Z,78.60
2022-11-17T13:49:37.568Z,78.50
2022-11-17T13:58:02.209Z,78.34
2022-11-17T14:06:23.915Z,78.66
2022-11-17T14:14:45.700Z,78.63
2022-11-17T14:23:08.156Z,78.47
2022-11-17T14:31:31.259Z,78.27
2022-11-17T14:39:53.260Z,78.44
2022-11-17T14:48:19.403Z,78.33
2022-11-17T14:56:41.465Z,78.26
2022-11-17T15:05:03.254Z,78.16
2022-11-17T15:13:24.873Z,78.09
2022-11-17T15:21:46.628Z,78.13
2022-11-17T15:30:08.535Z,78.31
2022-11-17T15:38:32.482Z,78.01
2022-11-17T15:46:54.218Z,78.15
2022-11-17T15:55:16.476Z,78.26
2022-11-17T16:03:40.240Z,78.31
2022-11-17T16:12:01.960Z,78.25
2022-11-17T16:20:23.929Z,78.22
2022-11-17T16:28:48.970Z,78.16
2022-11-17T16:37:10.548Z,78.21
2022-11-17T16:45:44.111Z,78.12
2022-11-17T16:54:10.210Z,78.09
2022-11-17T17:02:33.950Z,77.97
2022-11-17T17:11:01.092Z,78.12
2022-11-17T17:19:23.904Z,78.04
2022-11-17T17:27:45.758Z,78.02
2022-11-17T17:36:09.814Z,77.79
2022-11-17T17:44:32.482Z,77.73
2022-11-17T17:52:54.287Z,77.85
2022-11-17T18:01:17.435Z,77.78
2022-11-17T18:09:39.173Z,77.92
2022-11-17T18:18:00.802Z,77.89
2022-11-17T18:26:25.473Z,77.76
2022-11-17T18:34:47.251Z,77.73
2022-11-17T18:43:08.941Z,77.79
2022-11-17T18:51:33.707Z,77.79
2022-11-17T18:59:55.452Z,77.78
2022-11-17T19:08:17.238Z,77.85
2022-11-17T19:16:44.133Z,77.68
2022-11-17T19:25:07.052Z,77.80
2022-11-17T19:33:30.632Z,77.68
2022-11-17T19:41:53.052Z,77.78
2022-11-17T19:50:14.872Z,77.49
2022-11-17T19:58:36.684Z,77.49
2022-11-17T20:06:58.641Z,77.71
2022-11-17T20:15:33.878Z,77.58
2022-11-17T20:23:58.559Z,77.56
2022-11-17T20:32:20.764Z,77.37
2022-11-17T20:40:42.775Z,77.44
2022-11-17T20:49:05.157Z,77.56
2022-11-17T20:57:27.335Z,77.49
2022-11-17T21:06:00.358Z,77.45
2022-11-17T21:14:25.257Z,77.34
2022-11-17T21:22:47.831Z,77.32
2022-11-17T21:31:19.376Z,77.14
2022-11-17T21:39:41.152Z,77.28
2022-11-17T21:48:03.512Z,77.28
2022-11-17T21:56:26.517Z,77.33
2022-11-17T22:04:48.144Z,77.19
2022-11-17T22:13:09.871Z,77.21
2022-11-17T22:21:32.085Z,77.17
2022-11-17T22:29:53.903Z,77.17
2022-11-17T22:38:16.078Z,77.33
2022-11-17T22:46:39.887Z,77.35
2022-11-17T22:55:01.653Z,77.27
2022-11-17T23:03:24.093Z,77.19
2022-11-17T23:11:46.197Z,77.08
2022-11-17T23:20:09.417Z,76.97
2022-11-17T23:28:31.447Z,76.92
2022-11-17T23:37:00.833Z,76.91
2022-11-17T23:45:25.153Z,76.95
2022-11-17T23:53:47.109Z,77.09
